Latest Weather Observations for Munglinup West

IDW60801

Issued at 11:02 am WST Friday 31 July 2015 (issued every 30 minutes, with the page automatically refreshed every 10 minutes)

About weather observations | Map of weather stations | Latest weather observations for WA | Other Formats
Station Details ID: 012044 Name: MUNGLINUP WEST Lat: -33.55 Lon: 120.70 Height: 220.0 m
Data from the previous 72 hours. | See also: Recent months at Munglinup West
Date/Time
WST
Temp
°C
App
Temp
°C
Dew
Point
Rel
Hum
%
Delta-T
°C
Wind Press
QNH
hPa
Press
MSL
hPa
Rain
since 9 am
mm
Dir
 
Spd
km/h
Gust
km/h
Spd
kts
Gust
kts
31/11:00am 14.3 14.3 14.3 100 0.0 NW 7 13 4 7 1015.5 1015.5 5.0
31/10:30am 13.6 13.0 13.6 100 0.0 NW 9 17 5 9 1015.5 1015.5 4.8
31/10:00am 13.5 12.9 13.5 100 0.0 NNW 9 13 5 7 1015.6 1015.6 3.4
31/09:30am 13.6 13.0 13.6 100 0.0 NNW 9 11 5 6 1015.5 1015.5 0.2
31/09:00am 13.6 13.0 13.6 100 0.0 NNW 9 13 5 7 1015.4 1015.4 6.4
31/08:30am 13.6 11.9 13.6 100 0.0 NW 15 24 8 13 1015.8 1015.8 4.8
31/08:00am 13.7 12.7 13.4 98 0.2 NW 11 15 6 8 1015.4 1015.4 2.4
31/07:30am 13.7 13.4 13.4 98 0.2 WNW 7 9 4 5 1014.8 1014.9 1.2
31/07:00am 13.5 13.2 13.2 98 0.2 NW 7 11 4 6 1014.5 1014.6 1.2
31/06:30am 13.7 13.0 13.2 97 0.3 WNW 9 13 5 7 1014.5 1014.6 1.2
31/06:00am 14.0 13.4 13.4 96 0.3 WNW 9 13 5 7 1014.2 1014.3 1.2
31/05:30am 14.0 12.9 13.1 94 0.5 WNW 11 15 6 8 1014.8 1014.9 1.2
31/05:00am 14.5 12.2 13.0 91 0.8 NW 17 24 9 13 1013.9 1014.0 1.2
31/04:30am 14.7 12.0 12.9 89 1.0 NW 19 30 10 16 1014.3 1014.4 1.2
31/04:00am 14.7 11.5 13.2 91 0.8 NNW 22 32 12 17 1014.4 1014.5 1.2
31/03:30am 14.4 12.6 13.3 93 0.6 NNW 15 22 8 12 1014.4 1014.5 1.2
31/03:00am 14.7 12.2 13.4 92 0.7 NNW 19 28 10 15 1014.4 1014.5 1.2
31/02:30am 14.9 11.5 13.6 92 0.7 NNW 24 35 13 19 1014.4 1014.5 1.2
31/02:00am 14.9 12.3 13.8 93 0.6 NNW 20 35 11 19 1014.4 1014.5 1.2
31/01:30am 15.1 12.8 14.1 94 0.6 NNW 19 28 10 15 1015.1 1015.1 1.2
31/01:00am 15.2 14.2 14.6 96 0.3 NNW 13 22 7 12 1015.9 1015.9 1.2
31/12:30am 15.4 13.8 14.9 97 0.3 NNW 17 24 9 13 1016.2 1016.2 1.2
31/12:00am 15.0 13.7 14.8 99 0.1 N 15 19 8 10 1016.5 1016.6 1.2
 
Date/Time
WST
Temp
°C
App
Temp
°C
Dew
Point
Rel
Hum
%
Delta-T
°C
Wind Press
QNH
hPa
Press
MSL
hPa
Rain
since 9 am
mm
Dir
 
Spd
km/h
Gust
km/h
Spd
kts
Gust
kts
30/11:30pm 15.2 14.1 15.2 100 0.0 NNW 15 19 8 10 1017.0 1017.1 1.2
30/11:00pm 15.1 13.9 15.1 100 0.0 NNW 15 22 8 12 1017.3 1017.4 1.2
30/10:30pm 14.7 14.1 14.7 100 0.0 N 11 22 6 12 1017.5 1017.6 1.2
30/10:00pm 14.3 12.8 14.3 100 0.0 N 15 22 8 12 1017.9 1018.0 1.2
30/09:30pm 13.5 12.5 13.5 100 0.0 NNE 11 17 6 9 1018.4 1018.5 1.2
30/09:00pm 13.4 11.6 13.2 99 0.1 NNE 15 19 8 10 1018.7 1018.8 1.2
30/08:30pm 13.5 11.3 13.3 99 0.1 NE 17 20 9 11 1019.2 1019.3 1.0
30/08:00pm 13.4 10.8 13.2 99 0.1 NE 19 22 10 12 1019.0 1019.1 1.0
30/07:30pm 13.4 11.2 13.2 99 0.1 NE 17 24 9 13 1019.3 1019.4 1.0
30/07:00pm 13.4 11.6 13.2 99 0.1 NE 15 20 8 11 1019.5 1019.6 1.0
30/06:30pm 13.5 11.7 13.3 99 0.1 NE 15 19 8 10 1019.9 1019.9 1.0
30/06:00pm 13.6 11.8 13.3 98 0.2 ENE 15 19 8 10 1019.6 1019.7 1.0
30/05:30pm 13.7 11.9 13.2 97 0.3 ENE 15 20 8 11 1019.8 1019.8 1.0
30/05:00pm 14.3 12.8 13.0 92 0.7 NE 13 19 7 10 1020.2 1020.3 0.0
30/04:30pm 14.6 12.7 13.1 91 0.8 ENE 15 19 8 10 1020.2 1020.3 0.0
30/04:00pm 15.0 14.0 13.4 90 0.9 ENE 11 17 6 9 1020.3 1020.4 0.0
30/03:30pm 15.2 14.1 13.2 88 1.1 NE 11 17 6 9 1020.5 1020.6 0.0
30/03:00pm 15.4 13.9 13.2 87 1.2 ENE 13 17 7 9 1020.7 1020.8 0.0
30/02:30pm 16.0 15.0 13.5 85 1.4 ENE 11 17 6 9 1020.9 1021.0 0.0
30/02:00pm 15.9 14.8 13.2 84 1.5 NE 11 15 6 8 1021.4 1021.5 0.0
30/01:30pm 16.1 15.5 13.6 85 1.4 ENE 9 13 5 7 1021.5 1021.6 0.0
30/01:00pm 16.1 15.5 13.4 84 1.5 ENE 9 13 5 7 1021.7 1021.8 0.0
30/12:30pm 15.6 15.4 13.6 88 1.1 E 7 9 4 5 1022.1 1022.2 0.0
30/12:00pm 14.7 14.9 14.1 96 0.3 N 6 13 3 7 1022.9 1023.0 0.0
30/11:30am 14.7 15.1 14.7 100 0.0 N 6 11 3 6 1023.2 1023.3 0.0
30/11:00am 14.1 14.6 14.1 100 0.0 ESE 4 6 2 3 1023.1 1023.2 0.0
30/10:30am 13.6 - - - - E 6 9 3 5 1023.4 1023.5 0.0
30/10:00am 12.9 - - - - ESE 7 13 4 7 1023.6 1023.7 0.0
30/09:30am 13.3 - - - - ESE 6 9 3 5 1023.2 1023.3 0.0
30/09:00am 12.9 - - - - ESE 2 4 1 2 1023.3 1023.4 0.0
30/08:30am 12.7 - - - - SSE 4 6 2 3 1023.4 1023.5 0.0
30/08:00am 12.4 12.4 12.4 100 0.0 WSW 4 7 2 4 1023.1 1023.2 0.0
30/07:30am 11.6 11.3 11.6 100 0.0 W 4 6 2 3 1022.5 1022.6 0.0
30/07:00am 12.3 12.6 12.3 100 0.0 NW 2 4 1 2 1022.2 1022.3 0.0
30/06:30am 12.4 12.4 12.4 100 0.0 NW 4 4 2 2 1022.0 1022.1 0.0
30/06:00am 12.6 12.3 12.6 100 0.0 NW 6 7 3 4 1022.0 1022.1 0.0
30/05:30am 12.6 12.3 12.6 100 0.0 NW 6 6 3 3 1021.5 1021.6 0.0
30/05:00am 12.6 12.1 12.6 100 0.0 NNW 7 9 4 5 1021.5 1021.6 0.0
30/04:30am 12.6 12.3 12.6 100 0.0 NW 6 9 3 5 1021.4 1021.5 0.0
30/04:00am 12.5 12.0 12.5 100 0.0 NW 7 11 4 6 1021.5 1021.6 0.0
30/03:30am 12.6 12.3 12.6 100 0.0 WNW 6 7 3 4 1021.2 1021.3 0.0
30/03:00am 12.4 12.0 12.4 100 0.0 NNW 6 9 3 5 1021.2 1021.3 0.0
30/02:30am 12.4 11.4 12.4 100 0.0 NW 9 15 5 8 1021.2 1021.3 0.0
30/02:00am 12.4 11.1 12.4 100 0.0 WNW 11 19 6 10 1020.9 1021.0 0.0
30/01:30am 12.4 11.4 12.4 100 0.0 WNW 9 15 5 8 1021.1 1021.2 0.0
30/01:00am 12.4 11.4 12.4 100 0.0 WNW 9 15 5 8 1020.7 1020.8 0.0
30/12:30am 12.4 11.1 12.4 100 0.0 NW 11 19 6 10 1020.6 1020.7 0.0
30/12:00am 11.7 10.1 11.7 100 0.0 NNW 11 15 6 8 1020.5 1020.6 0.0
 
Date/Time
WST
Temp
°C
App
Temp
°C
Dew
Point
Rel
Hum
%
Delta-T
°C
Wind Press
QNH
hPa
Press
MSL
hPa
Rain
since 9 am
mm
Dir
 
Spd
km/h
Gust
km/h
Spd
kts
Gust
kts
29/11:30pm 10.8 9.3 10.6 99 0.1 NNW 9 13 5 7 1020.3 1020.4 0.0
29/11:00pm 11.7 10.8 11.5 99 0.1 NW 7 11 4 6 1020.3 1020.4 0.0
29/10:30pm 11.9 11.1 11.6 98 0.2 NW 7 9 4 5 1020.4 1020.5 0.0
29/10:00pm 11.9 10.6 11.4 97 0.3 NW 9 13 5 7 1020.2 1020.3 0.0
29/09:30pm 12.5 11.0 12.0 97 0.3 NW 11 13 6 7 1020.1 1020.1 0.0
29/09:00pm 12.3 11.1 11.7 96 0.3 NW 9 11 5 6 1019.6 1019.7 0.0
29/08:30pm 12.6 11.1 12.0 96 0.3 NW 11 17 6 9 1020.1 1020.1 0.0
29/08:00pm 12.6 11.1 11.8 95 0.4 NW 11 17 6 9 1019.6 1019.7 0.0
29/07:30pm 12.4 10.8 11.5 94 0.5 NW 11 15 6 8 1019.5 1019.6 0.0
29/07:00pm 12.4 11.5 11.3 93 0.6 NNW 7 9 4 5 1019.2 1019.3 0.0
29/06:30pm 12.6 11.7 11.2 91 0.7 N 7 9 4 5 1018.7 1018.8 0.0
29/06:00pm 13.1 12.2 11.2 88 1.0 NNW 7 9 4 5 1018.6 1018.7 0.0
29/05:30pm 13.9 12.7 11.6 86 1.2 NW 9 13 5 7 1018.2 1018.3 0.0
29/05:00pm 14.8 13.7 11.9 83 1.6 NW 9 13 5 7 1018.1 1018.2 0.0
29/04:30pm 15.2 13.7 12.0 81 1.8 NW 11 17 6 9 1018.1 1018.2 0.0
29/04:00pm 15.6 13.0 12.0 79 2.0 WNW 17 26 9 14 1018.2 1018.3 0.0
29/03:30pm 15.6 13.4 12.0 79 2.0 WNW 15 22 8 12 1017.9 1018.0 0.0
29/03:00pm 15.9 13.3 12.1 78 2.1 WNW 17 24 9 13 1017.6 1017.7 0.0
29/02:30pm 16.0 13.2 12.7 81 1.8 W 19 26 10 14 1017.5 1017.6 0.0
29/02:00pm 16.2 13.5 12.9 81 1.8 W 19 24 10 13 1016.9 1017.0 0.0
29/01:30pm 16.8 14.0 12.5 76 2.4 WNW 19 28 10 15 1016.6 1016.7 0.0
29/01:00pm 16.7 14.7 12.8 78 2.2 W 15 22 8 12 1016.9 1017.0 0.0
29/12:30pm 15.9 12.9 12.1 78 2.1 WNW 19 26 10 14 1017.2 1017.3 0.0
29/12:00pm 16.0 14.2 12.0 77 2.2 WNW 13 19 7 10 1017.7 1017.8 0.0
29/11:30am 14.7 12.6 11.3 80 1.8 NW 13 20 7 11 1018.2 1018.3 0.0
29/11:00am 14.1 12.1 11.6 85 1.3 WNW 13 20 7 11 1018.5 1018.6 0.0
29/10:30am 12.3 10.2 11.0 92 0.7 NW 13 19 7 10 1018.9 1019.0 0.0
29/10:00am 12.4 10.4 11.6 95 0.4 NW 13 20 7 11 1018.9 1019.0 0.0
29/09:30am 11.7 10.1 11.4 98 0.2 WNW 11 15 6 8 1018.9 1019.0 0.0
29/09:00am 11.5 9.5 11.5 100 0.0 W 13 19 7 10 1018.8 1018.9 0.2
29/08:30am 11.4 9.8 11.4 100 0.0 WNW 11 22 6 12 1018.7 1018.8 0.2
29/08:00am 10.4 8.5 10.4 100 0.0 WNW 11 15 6 8 1018.2 1018.3 0.2
29/07:30am 9.7 7.6 9.7 100 0.0 NW 11 13 6 7 1017.9 1018.0 0.2
29/07:00am 9.3 7.1 9.3 100 0.0 NW 11 13 6 7 1017.5 1017.6 0.2
29/06:30am 9.4 7.2 9.4 100 0.0 WNW 11 15 6 8 1017.4 1017.5 0.2
29/06:00am 9.6 7.8 9.6 100 0.0 WNW 9 13 5 7 1017.2 1017.3 0.2
29/05:30am 8.9 7.0 8.9 100 0.0 WNW 9 13 5 7 1016.9 1017.0 0.2
29/05:00am 8.8 6.8 8.8 100 0.0 WNW 9 13 5 7 1016.7 1016.8 0.0
29/04:30am 8.7 6.7 8.7 100 0.0 NW 9 15 5 8 1016.6 1016.7 0.0
29/04:00am 8.6 6.6 8.5 99 0.0 NW 9 13 5 7 1016.4 1016.5 0.0
29/03:30am 8.1 5.6 8.0 99 0.0 NNW 11 13 6 7 1016.4 1016.5 0.0
29/03:00am 8.3 6.1 8.0 98 0.1 N 9 11 5 6 1016.2 1016.2 0.0
29/02:30am 8.4 5.9 8.0 97 0.2 N 11 13 6 7 1016.5 1016.6 0.0
29/02:00am 8.6 6.1 8.0 96 0.3 N 11 15 6 8 1016.6 1016.7 0.0
29/01:30am 9.2 6.7 8.4 95 0.4 N 11 13 6 7 1016.8 1016.9 0.0
29/01:00am 9.9 7.1 8.5 91 0.7 N 13 17 7 9 1016.8 1016.9 0.0
29/12:30am 11.1 8.5 9.2 88 1.0 NNW 13 19 7 10 1017.3 1017.4 0.0
29/12:00am 11.3 9.0 9.0 86 1.2 NNW 11 17 6 9 1017.5 1017.6 0.0
 
Date/Time
WST
Temp
°C
App
Temp
°C
Dew
Point
Rel
Hum
%
Delta-T
°C
Wind Press
QNH
hPa
Press
MSL
hPa
Rain
since 9 am
mm
Dir
 
Spd
km/h
Gust
km/h
Spd
kts
Gust
kts
28/11:30pm 11.4 8.3 9.0 85 1.2 NNW 15 19 8 10 1017.8 1017.9 0.0
28/11:00pm 11.3 9.1 9.2 87 1.1 N 11 17 6 9 1017.9 1018.0 0.0
28/10:30pm 10.8 9.3 9.1 89 0.9 N 7 11 4 6 1018.0 1018.1 0.0
28/10:00pm 10.7 8.7 8.8 88 0.9 N 9 13 5 7 1018.0 1018.1 0.0
28/09:30pm 10.6 9.0 8.7 88 0.9 NNE 7 11 4 6 1018.3 1018.4 0.0
28/09:00pm 10.7 8.7 8.6 87 1.0 NNE 9 11 5 6 1018.3 1018.4 0.0
28/08:30pm 11.1 8.7 8.7 85 1.2 N 11 17 6 9 1018.2 1018.3 0.0
28/08:00pm 11.3 8.5 8.7 84 1.3 NNE 13 20 7 11 1018.2 1018.3 0.0
28/07:30pm 11.2 7.9 8.2 82 1.5 N 15 22 8 12 1018.2 1018.3 0.0
28/07:00pm 11.7 7.9 7.4 75 2.1 N 17 24 9 13 1018.1 1018.2 0.0
28/06:30pm 12.2 8.0 7.3 72 2.4 N 19 28 10 15 1018.0 1018.1 0.0
28/06:00pm 12.6 8.1 7.1 69 2.7 N 20 28 11 15 1017.9 1018.0 0.0
28/05:30pm 12.5 8.4 6.3 66 3.0 N 17 24 9 13 1017.5 1017.6 0.0
28/05:00pm 13.0 9.3 6.4 64 3.2 N 15 20 8 11 1017.3 1017.4 0.0
28/04:30pm 13.6 9.5 6.2 61 3.6 N 17 24 9 13 1017.6 1017.7 0.0
28/04:00pm 13.6 9.3 6.9 64 3.3 NNE 19 26 10 14 1017.1 1017.2 0.0
28/03:30pm 13.1 10.9 7.8 70 2.6 NNE 9 13 5 7 1018.2 1018.3 0.0
28/03:00pm 13.6 10.5 7.4 66 3.1 N 13 17 7 9 1018.5 1018.6 0.0
28/02:30pm 13.5 10.0 7.1 65 3.1 N 15 22 8 12 1019.0 1019.1 0.0
28/02:00pm 12.9 9.9 7.8 71 2.5 N 13 19 7 10 1019.0 1019.1 0.0
28/01:30pm 12.5 10.1 7.2 70 2.6 N 9 17 5 9 1019.6 1019.7 0.0
28/01:00pm 12.5 9.6 6.3 66 3.0 NNE 11 17 6 9 1019.8 1019.8 0.0
28/12:30pm 12.3 8.9 6.1 66 3.0 N 13 22 7 12 1020.5 1020.6 0.0
28/12:00pm 12.2 9.3 6.7 69 2.6 N 11 19 6 10 1021.4 1021.5 0.0
28/11:30am 12.1 8.8 6.4 68 2.7 NNE 13 22 7 12 1021.6 1021.7 0.0

Other Formats:

Comma delimited format used in spreadsheet applications
http://www.bom.gov.au/fwo/IDW60801/IDW60801.95644.axf

JavaScript Object Notation format (JSON) in row-major order
http://www.bom.gov.au/fwo/IDW60801/IDW60801.95644.json